sensor_id;sensor_type;location;lat;lon;timestamp;temperature;humidity
1011;DHT22;494;48.744;10.106;2022-12-29T00:00:17;8.70;33.90
1011;DHT22;494;48.744;10.106;2022-12-29T00:02:46;8.70;34.00
1011;DHT22;494;48.744;10.106;2022-12-29T00:05:15;8.70;34.00
1011;DHT22;494;48.744;10.106;2022-12-29T00:07:45;8.70;34.00
1011;DHT22;494;48.744;10.106;2022-12-29T00:10:14;8.70;34.10
1011;DHT22;494;48.744;10.106;2022-12-29T00:12:42;8.70;34.10
1011;DHT22;494;48.744;10.106;2022-12-29T00:15:28;8.60;34.20
1011;DHT22;494;48.744;10.106;2022-12-29T00:18:06;8.70;34.30
1011;DHT22;494;48.744;10.106;2022-12-29T00:20:36;8.70;34.20
1011;DHT22;494;48.744;10.106;2022-12-29T00:23:24;8.70;34.10
1011;DHT22;494;48.744;10.106;2022-12-29T00:26:13;8.70;34.20
1011;DHT22;494;48.744;10.106;2022-12-29T00:29:00;8.70;34.10
1011;DHT22;494;48.744;10.106;2022-12-29T00:31:46;8.70;34.20
1011;DHT22;494;48.744;10.106;2022-12-29T00:34:44;8.70;34.30
1011;DHT22;494;48.744;10.106;2022-12-29T00:37:30;8.70;34.30
1011;DHT22;494;48.744;10.106;2022-12-29T00:40:14;8.80;34.20
1011;DHT22;494;48.744;10.106;2022-12-29T00:43:00;8.80;34.20
1011;DHT22;494;48.744;10.106;2022-12-29T00:45:46;8.90;34.10
1011;DHT22;494;48.744;10.106;2022-12-29T00:48:14;9.00;34.00
1011;DHT22;494;48.744;10.106;2022-12-29T00:51:03;8.90;33.70
1011;DHT22;494;48.744;10.106;2022-12-29T00:53:30;9.00;33.70
1011;DHT22;494;48.744;10.106;2022-12-29T00:56:01;9.00;33.80
1011;DHT22;494;48.744;10.106;2022-12-29T00:58:30;8.90;33.90
1011;DHT22;494;48.744;10.106;2022-12-29T01:01:02;9.00;34.30
1011;DHT22;494;48.744;10.106;2022-12-29T01:03:33;8.90;34.80
1011;DHT22;494;48.744;10.106;2022-12-29T01:06:04;8.80;34.80
1011;DHT22;494;48.744;10.106;2022-12-29T01:08:34;8.70;35.30
1011;DHT22;494;48.744;10.106;2022-12-29T01:11:06;8.70;35.60
1011;DHT22;494;48.744;10.106;2022-12-29T01:13:35;8.70;35.90
1011;DHT22;494;48.744;10.106;2022-12-29T01:16:05;8.70;36.10
1011;DHT22;494;48.744;10.106;2022-12-29T01:18:34;8.60;36.40
1011;DHT22;494;48.744;10.106;2022-12-29T01:21:04;8.60;36.70
1011;DHT22;494;48.744;10.106;2022-12-29T01:23:34;8.60;36.80
1011;DHT22;494;48.744;10.106;2022-12-29T01:26:10;8.60;36.70
1011;DHT22;494;48.744;10.106;2022-12-29T01:28:40;8.60;36.70
1011;DHT22;494;48.744;10.106;2022-12-29T01:31:09;8.50;36.80
1011;DHT22;494;48.744;10.106;2022-12-29T01:33:40;8.50;36.70
1011;DHT22;494;48.744;10.106;2022-12-29T01:36:11;8.40;36.50
1011;DHT22;494;48.744;10.106;2022-12-29T01:38:41;8.40;36.30
1011;DHT22;494;48.744;10.106;2022-12-29T01:41:14;8.50;36.30
1011;DHT22;494;48.744;10.106;2022-12-29T01:43:46;8.50;36.20
1011;DHT22;494;48.744;10.106;2022-12-29T01:46:21;8.60;35.90
1011;DHT22;494;48.744;10.106;2022-12-29T01:48:56;8.60;35.70
1011;DHT22;494;48.744;10.106;2022-12-29T01:51:31;8.60;35.80
1011;DHT22;494;48.744;10.106;2022-12-29T01:54:07;8.70;35.70
1011;DHT22;494;48.744;10.106;2022-12-29T01:56:39;8.70;35.60
1011;DHT22;494;48.744;10.106;2022-12-29T01:59:12;8.80;35.50
1011;DHT22;494;48.744;10.106;2022-12-29T02:01:44;8.80;35.40
1011;DHT22;494;48.744;10.106;2022-12-29T02:04:13;8.90;35.20
1011;DHT22;494;48.744;10.106;2022-12-29T02:06:47;8.90;35.10
1011;DHT22;494;48.744;10.106;2022-12-29T02:09:20;8.90;35.80
1011;DHT22;494;48.744;10.106;2022-12-29T02:11:52;8.90;35.10
1011;DHT22;494;48.744;10.106;2022-12-29T02:14:21;8.90;34.70
1011;DHT22;494;48.744;10.106;2022-12-29T02:17:01;8.90;34.80
1011;DHT22;494;48.744;10.106;2022-12-29T02:20:02;8.90;35.00
1011;DHT22;494;48.744;10.106;2022-12-29T02:23:12;8.90;34.70
1011;DHT22;494;48.744;10.106;2022-12-29T02:26:16;9.00;34.60
1011;DHT22;494;48.744;10.106;2022-12-29T02:29:21;9.10;34.20
1011;DHT22;494;48.744;10.106;2022-12-29T02:32:10;9.20;33.30
1011;DHT22;494;48.744;10.106;2022-12-29T02:34:49;9.20;33.10
1011;DHT22;494;48.744;10.106;2022-12-29T02:37:28;9.30;33.20
1011;DHT22;494;48.744;10.106;2022-12-29T02:40:07;9.20;32.50
1011;DHT22;494;48.744;10.106;2022-12-29T02:42:54;9.30;32.60
1011;DHT22;494;48.744;10.106;2022-12-29T02:45:33;9.40;32.40
1011;DHT22;494;48.744;10.106;2022-12-29T02:48:16;9.40;31.80
1011;DHT22;494;48.744;10.106;2022-12-29T02:50:51;9.30;31.50
1011;DHT22;494;48.744;10.106;2022-12-29T02:53:26;9.40;31.30
1011;DHT22;494;48.744;10.106;2022-12-29T02:56:13;9.50;31.40
1011;DHT22;494;48.744;10.106;2022-12-29T02:58:44;9.60;31.40
1011;DHT22;494;48.744;10.106;2022-12-29T03:01:28;9.60;31.20
1011;DHT22;494;48.744;10.106;2022-12-29T03:04:37;9.60;31.40
1011;DHT22;494;48.744;10.106;2022-12-29T03:07:20;9.60;31.30
1011;DHT22;494;48.744;10.106;2022-12-29T03:10:03;9.50;31.40
1011;DHT22;494;48.744;10.106;2022-12-29T03:12:41;9.60;31.50
1011;DHT22;494;48.744;10.106;2022-12-29T03:15:41;9.60;31.40
1011;DHT22;494;48.744;10.106;2022-12-29T03:18:40;9.60;31.40
1011;DHT22;494;48.744;10.106;2022-12-29T03:21:18;9.50;31.00
1011;DHT22;494;48.744;10.106;2022-12-29T03:24:14;9.40;30.60
1011;DHT22;494;48.744;10.106;2022-12-29T03:26:45;9.40;30.50
1011;DHT22;494;48.744;10.106;2022-12-29T03:29:17;9.30;31.20
1011;DHT22;494;48.744;10.106;2022-12-29T03:31:47;9.40;30.90
1011;DHT22;494;48.744;10.106;2022-12-29T03:34:18;9.40;30.40
1011;DHT22;494;48.744;10.106;2022-12-29T03:36:53;9.40;30.60
1011;DHT22;494;48.744;10.106;2022-12-29T03:39:25;9.30;30.40
1011;DHT22;494;48.744;10.106;2022-12-29T03:41:59;9.30;30.50
1011;DHT22;494;48.744;10.106;2022-12-29T03:44:35;9.40;30.60
1011;DHT22;494;48.744;10.106;2022-12-29T03:47:06;9.60;30.10
1011;DHT22;494;48.744;10.106;2022-12-29T03:49:35;9.60;30.00
1011;DHT22;494;48.744;10.106;2022-12-29T03:52:05;9.60;29.40
1011;DHT22;494;48.744;10.106;2022-12-29T03:54:34;9.70;29.80
1011;DHT22;494;48.744;10.106;2022-12-29T03:57:03;9.60;29.50
1011;DHT22;494;48.744;10.106;2022-12-29T03:59:31;9.60;29.60
1011;DHT22;494;48.744;10.106;2022-12-29T04:02:00;9.60;29.70
1011;DHT22;494;48.744;10.106;2022-12-29T04:04:29;9.50;29.70
1011;DHT22;494;48.744;10.106;2022-12-29T04:06:59;9.60;29.90
1011;DHT22;494;48.744;10.106;2022-12-29T04:09:28;9.70;30.20
1011;DHT22;494;48.744;10.106;2022-12-29T04:11:58;9.60;29.70
1011;DHT22;494;48.744;10.106;2022-12-29T04:14:26;9.60;29.90
1011;DHT22;494;48.744;10.106;2022-12-29T04:16:55;9.70;30.00
1011;DHT22;494;48.744;10.106;2022-12-29T04:19:23;9.70;30.00
1011;DHT22;494;48.744;10.106;2022-12-29T04:21:52;9.80;29.70
1011;DHT22;494;48.744;10.106;2022-12-29T04:24:20;9.80;29.80
1011;DHT22;494;48.744;10.106;2022-12-29T04:26:50;9.80;29.70
1011;DHT22;494;48.744;10.106;2022-12-29T04:29:19;9.80;29.50
1011;DHT22;494;48.744;10.106;2022-12-29T04:31:47;9.70;29.40
1011;DHT22;494;48.744;10.106;2022-12-29T04:34:16;9.60;29.30
1011;DHT22;494;48.744;10.106;2022-12-29T04:36:44;9.60;29.70
1011;DHT22;494;48.744;10.106;2022-12-29T04:39:13;9.50;29.60
1011;DHT22;494;48.744;10.106;2022-12-29T04:41:41;9.50;29.80
1011;DHT22;494;48.744;10.106;2022-12-29T04:44:11;9.50;29.70
1011;DHT22;494;48.744;10.106;2022-12-29T04:46:40;9.50;29.80
1011;DHT22;494;48.744;10.106;2022-12-29T04:49:09;9.50;29.70
1011;DHT22;494;48.744;10.106;2022-12-29T04:51:37;9.50;29.90
1011;DHT22;494;48.744;10.106;2022-12-29T04:54:06;9.40;29.60
1011;DHT22;494;48.744;10.106;2022-12-29T04:56:36;9.20;29.80
1011;DHT22;494;48.744;10.106;2022-12-29T04:59:04;9.20;30.10
1011;DHT22;494;48.744;10.106;2022-12-29T05:01:34;9.10;30.10
1011;DHT22;494;48.744;10.106;2022-12-29T05:04:03;9.10;30.20
1011;DHT22;494;48.744;10.106;2022-12-29T05:06:32;9.10;30.10
1011;DHT22;494;48.744;10.106;2022-12-29T05:09:01;9.10;30.10
1011;DHT22;494;48.744;10.106;2022-12-29T05:11:29;9.10;30.10
1011;DHT22;494;48.744;10.106;2022-12-29T05:13:58;8.90;30.00
1011;DHT22;494;48.744;10.106;2022-12-29T05:16:26;8.80;30.60
1011;DHT22;494;48.744;10.106;2022-12-29T05:18:56;8.70;30.90
1011;DHT22;494;48.744;10.106;2022-12-29T05:21:25;8.70;31.10
1011;DHT22;494;48.744;10.106;2022-12-29T05:23:53;8.60;31.20
1011;DHT22;494;48.744;10.106;2022-12-29T05:26:22;8.60;31.00
1011;DHT22;494;48.744;10.106;2022-12-29T05:28:51;8.60;31.00
1011;DHT22;494;48.744;10.106;2022-12-29T05:31:19;8.70;31.30
1011;DHT22;494;48.744;10.106;2022-12-29T05:33:48;8.70;31.50
1011;DHT22;494;48.744;10.106;2022-12-29T05:36:18;8.60;31.90
1011;DHT22;494;48.744;10.106;2022-12-29T05:38:47;8.60;32.10
1011;DHT22;494;48.744;10.106;2022-12-29T05:41:15;8.60;32.20
1011;DHT22;494;48.744;10.106;2022-12-29T05:43:44;8.50;32.10
1011;DHT22;494;48.744;10.106;2022-12-29T05:46:12;8.40;32.60
1011;DHT22;494;48.744;10.106;2022-12-29T05:48:41;8.30;33.40
1011;DHT22;494;48.744;10.106;2022-12-29T05:51:10;8.10;34.50
1011;DHT22;494;48.744;10.106;2022-12-29T05:53:40;8.00;34.90
1011;DHT22;494;48.744;10.106;2022-12-29T05:56:08;7.90;35.30
1011;DHT22;494;48.744;10.106;2022-12-29T05:58:37;7.80;35.20
1011;DHT22;494;48.744;10.106;2022-12-29T06:01:05;7.80;35.50
1011;DHT22;494;48.744;10.106;2022-12-29T06:03:34;7.80;35.50
1011;DHT22;494;48.744;10.106;2022-12-29T06:06:03;8.00;35.70
1011;DHT22;494;48.744;10.106;2022-12-29T06:08:32;7.70;35.70
1011;DHT22;494;48.744;10.106;2022-12-29T06:11:02;7.70;36.10
1011;DHT22;494;48.744;10.106;2022-12-29T06:13:30;7.60;36.00
1011;DHT22;494;48.744;10.106;2022-12-29T06:15:59;7.60;36.10
1011;DHT22;494;48.744;10.106;2022-12-29T06:18:28;7.50;36.40
1011;DHT22;494;48.744;10.106;2022-12-29T06:20:59;7.40;36.40
1011;DHT22;494;48.744;10.106;2022-12-29T06:23:28;7.40;36.50
1011;DHT22;494;48.744;10.106;2022-12-29T06:25:57;7.40;36.70
1011;DHT22;494;48.744;10.106;2022-12-29T06:28:27;7.30;36.70
1011;DHT22;494;48.744;10.106;2022-12-29T06:30:56;7.30;36.90
1011;DHT22;494;48.744;10.106;2022-12-29T06:33:24;7.30;36.90
1011;DHT22;494;48.744;10.106;2022-12-29T06:35:53;7.30;36.90
1011;DHT22;494;48.744;10.106;2022-12-29T06:38:22;7.20;36.80
1011;DHT22;494;48.744;10.106;2022-12-29T06:40:50;7.20;36.90
1011;DHT22;494;48.744;10.106;2022-12-29T06:43:19;7.20;37.10
1011;DHT22;494;48.744;10.106;2022-12-29T06:45:48;7.00;37.30
1011;DHT22;494;48.744;10.106;2022-12-29T06:48:17;7.00;37.50
1011;DHT22;494;48.744;10.106;2022-12-29T06:50:45;7.00;37.80
1011;DHT22;494;48.744;10.106;2022-12-29T06:53:14;6.90;38.30
1011;DHT22;494;48.744;10.106;2022-12-29T06:55:42;6.70;38.70
1011;DHT22;494;48.744;10.106;2022-12-29T06:58:11;6.70;38.90
1011;DHT22;494;48.744;10.106;2022-12-29T07:00:40;6.50;39.40
1011;DHT22;494;48.744;10.106;2022-12-29T07:03:09;6.40;39.60
1011;DHT22;494;48.744;10.106;2022-12-29T07:05:38;6.40;39.80
1011;DHT22;494;48.744;10.106;2022-12-29T07:08:07;6.40;39.70
1011;DHT22;494;48.744;10.106;2022-12-29T07:10:35;6.40;39.70
1011;DHT22;494;48.744;10.106;2022-12-29T07:13:04;6.50;40.10
1011;DHT22;494;48.744;10.106;2022-12-29T07:15:34;6.50;40.30
1011;DHT22;494;48.744;10.106;2022-12-29T07:18:04;6.60;40.20
1011;DHT22;494;48.744;10.106;2022-12-29T07:20:34;6.70;40.00
1011;DHT22;494;48.744;10.106;2022-12-29T07:23:03;6.80;39.70
1011;DHT22;494;48.744;10.106;2022-12-29T07:25:31;6.90;39.30
1011;DHT22;494;48.744;10.106;2022-12-29T07:28:02;7.00;38.80
1011;DHT22;494;48.744;10.106;2022-12-29T07:30:31;7.00;38.40
1011;DHT22;494;48.744;10.106;2022-12-29T07:32:59;7.00;38.20
1011;DHT22;494;48.744;10.106;2022-12-29T07:35:28;7.00;37.90
1011;DHT22;494;48.744;10.106;2022-12-29T07:37:58;6.90;38.10
1011;DHT22;494;48.744;10.106;2022-12-29T07:40:26;6.70;38.50
1011;DHT22;494;48.744;10.106;2022-12-29T07:42:55;6.60;39.00
1011;DHT22;494;48.744;10.106;2022-12-29T07:45:23;6.60;39.40
1011;DHT22;494;48.744;10.106;2022-12-29T07:47:52;6.60;39.70
1011;DHT22;494;48.744;10.106;2022-12-29T07:50:20;6.70;39.80
1011;DHT22;494;48.744;10.106;2022-12-29T07:52:48;6.70;39.70
1011;DHT22;494;48.744;10.106;2022-12-29T07:55:18;6.80;39.60
1011;DHT22;494;48.744;10.106;2022-12-29T07:57:47;6.90;39.60
1011;DHT22;494;48.744;10.106;2022-12-29T08:00:16;7.00;39.40
1011;DHT22;494;48.744;10.106;2022-12-29T08:02:45;7.00;38.80
1011;DHT22;494;48.744;10.106;2022-12-29T08:05:13;7.00;38.60
1011;DHT22;494;48.744;10.106;2022-12-29T08:07:43;6.90;38.70
1011;DHT22;494;48.744;10.106;2022-12-29T08:10:13;6.90;38.80
1011;DHT22;494;48.744;10.106;2022-12-29T08:12:44;6.90;39.00
1011;DHT22;494;48.744;10.106;2022-12-29T08:15:12;7.00;39.10
1011;DHT22;494;48.744;10.106;2022-12-29T08:17:41;7.10;38.90
1011;DHT22;494;48.744;10.106;2022-12-29T08:20:10;7.10;38.60
1011;DHT22;494;48.744;10.106;2022-12-29T08:22:39;7.20;38.60
1011;DHT22;494;48.744;10.106;2022-12-29T08:25:08;7.30;38.40
1011;DHT22;494;48.744;10.106;2022-12-29T08:27:37;7.20;38.30
1011;DHT22;494;48.744;10.106;2022-12-29T08:30:08;7.30;38.40
1011;DHT22;494;48.744;10.106;2022-12-29T08:32:37;7.20;38.40
1011;DHT22;494;48.744;10.106;2022-12-29T08:35:07;7.20;38.40
1011;DHT22;494;48.744;10.106;2022-12-29T08:37:36;7.20;38.80
1011;DHT22;494;48.744;10.106;2022-12-29T08:40:05;7.20;38.90
1011;DHT22;494;48.744;10.106;2022-12-29T08:42:35;7.20;39.30
1011;DHT22;494;48.744;10.106;2022-12-29T08:45:04;7.20;41.20
1011;DHT22;494;48.744;10.106;2022-12-29T08:47:35;7.40;40.60
1011;DHT22;494;48.744;10.106;2022-12-29T08:50:04;7.60;39.50
1011;DHT22;494;48.744;10.106;2022-12-29T08:52:33;7.90;39.40
1011;DHT22;494;48.744;10.106;2022-12-29T08:55:02;8.20;39.70
1011;DHT22;494;48.744;10.106;2022-12-29T08:57:30;8.40;39.40
1011;DHT22;494;48.744;10.106;2022-12-29T08:59:59;8.70;38.80
1011;DHT22;494;48.744;10.106;2022-12-29T09:02:28;9.00;38.20
1011;DHT22;494;48.744;10.106;2022-12-29T09:04:58;9.40;37.10
1011;DHT22;494;48.744;10.106;2022-12-29T09:07:27;9.70;35.80
1011;DHT22;494;48.744;10.106;2022-12-29T09:09:56;10.10;34.30
1011;DHT22;494;48.744;10.106;2022-12-29T09:12:26;10.40;33.30
1011;DHT22;494;48.744;10.106;2022-12-29T09:15:02;10.90;32.20
1011;DHT22;494;48.744;10.106;2022-12-29T09:17:32;11.10;31.70
1011;DHT22;494;48.744;10.106;2022-12-29T09:20:16;11.30;31.50
1011;DHT22;494;48.744;10.106;2022-12-29T09:22:46;11.40;30.50
1011;DHT22;494;48.744;10.106;2022-12-29T09:25:16;11.30;30.60
1011;DHT22;494;48.744;10.106;2022-12-29T09:27:45;11.40;30.30
1011;DHT22;494;48.744;10.106;2022-12-29T09:30:14;11.50;30.20
1011;DHT22;494;48.744;10.106;2022-12-29T09:32:43;11.40;30.40
1011;DHT22;494;48.744;10.106;2022-12-29T09:35:18;11.50;30.50
1011;DHT22;494;48.744;10.106;2022-12-29T09:37:46;11.60;30.20
1011;DHT22;494;48.744;10.106;2022-12-29T09:40:24;11.60;29.80
1011;DHT22;494;48.744;10.106;2022-12-29T09:43:16;11.70;29.60
1011;DHT22;494;48.744;10.106;2022-12-29T09:45:56;11.60;30.20
1011;DHT22;494;48.744;10.106;2022-12-29T09:48:34;11.70;30.30
1011;DHT22;494;48.744;10.106;2022-12-29T09:51:11;11.90;29.60
1011;DHT22;494;48.744;10.106;2022-12-29T09:53:47;11.90;29.30
1011;DHT22;494;48.744;10.106;2022-12-29T09:56:21;11.90;28.60
1011;DHT22;494;48.744;10.106;2022-12-29T09:58:54;11.90;29.20
1011;DHT22;494;48.744;10.106;2022-12-29T10:01:31;11.90;29.10
1011;DHT22;494;48.744;10.106;2022-12-29T10:04:04;12.10;28.70
1011;DHT22;494;48.744;10.106;2022-12-29T10:06:41;12.30;28.60
1011;DHT22;494;48.744;10.106;2022-12-29T10:09:41;12.60;26.90
1011;DHT22;494;48.744;10.106;2022-12-29T10:12:25;12.90;26.00
1011;DHT22;494;48.744;10.106;2022-12-29T10:15:03;13.00;25.40
1011;DHT22;494;48.744;10.106;2022-12-29T10:17:48;12.80;25.70
1011;DHT22;494;48.744;10.106;2022-12-29T10:20:28;12.80;26.30
1011;DHT22;494;48.744;10.106;2022-12-29T10:23:17;12.80;26.80
1011;DHT22;494;48.744;10.106;2022-12-29T10:25:54;12.80;26.50
1011;DHT22;494;48.744;10.106;2022-12-29T10:28:34;12.70;26.60
1011;DHT22;494;48.744;10.106;2022-12-29T10:31:11;12.70;27.10
1011;DHT22;494;48.744;10.106;2022-12-29T10:33:49;12.90;26.90
1011;DHT22;494;48.744;10.106;2022-12-29T10:36:26;13.10;26.00
1011;DHT22;494;48.744;10.106;2022-12-29T10:39:10;13.20;25.70
1011;DHT22;494;48.744;10.106;2022-12-29T10:41:48;13.20;25.70
1011;DHT22;494;48.744;10.106;2022-12-29T10:44:29;13.10;25.90
1011;DHT22;494;48.744;10.106;2022-12-29T10:47:06;13.10;27.10
1011;DHT22;494;48.744;10.106;2022-12-29T10:49:41;13.10;26.40
1011;DHT22;494;48.744;10.106;2022-12-29T10:52:11;13.00;26.70
1011;DHT22;494;48.744;10.106;2022-12-29T10:54:47;13.00;26.30
1011;DHT22;494;48.744;10.106;2022-12-29T10:57:25;13.10;26.60
1011;DHT22;494;48.744;10.106;2022-12-29T10:59:55;13.10;26.80
1011;DHT22;494;48.744;10.106;2022-12-29T11:05:47;13.00;27.00
1011;DHT22;494;48.744;10.106;2022-12-29T11:08:22;12.80;27.00
1011;DHT22;494;48.744;10.106;2022-12-29T11:11:00;12.90;27.80
1011;DHT22;494;48.744;10.106;2022-12-29T11:13:33;12.90;27.80
1011;DHT22;494;48.744;10.106;2022-12-29T11:16:05;12.80;27.80
1011;DHT22;494;48.744;10.106;2022-12-29T11:18:36;12.80;27.70
1011;DHT22;494;48.744;10.106;2022-12-29T11:21:23;12.80;28.00
1011;DHT22;494;48.744;10.106;2022-12-29T11:23:59;12.70;28.00
1011;DHT22;494;48.744;10.106;2022-12-29T11:26:31;12.60;28.60
1011;DHT22;494;48.744;10.106;2022-12-29T11:29:21;12.60;28.90
1011;DHT22;494;48.744;10.106;2022-12-29T11:31:56;12.50;29.40
1011;DHT22;494;48.744;10.106;2022-12-29T11:34:30;12.50;29.40
1011;DHT22;494;48.744;10.106;2022-12-29T11:37:03;12.40;29.40
1011;DHT22;494;48.744;10.106;2022-12-29T11:39:37;12.40;29.80
1011;DHT22;494;48.744;10.106;2022-12-29T11:42:15;12.40;30.00
1011;DHT22;494;48.744;10.106;2022-12-29T11:44:47;12.40;29.70
1011;DHT22;494;48.744;10.106;2022-12-29T11:47:27;12.40;30.10
1011;DHT22;494;48.744;10.106;2022-12-29T11:50:00;12.40;30.20
1011;DHT22;494;48.744;10.106;2022-12-29T11:52:33;12.40;30.30
1011;DHT22;494;48.744;10.106;2022-12-29T11:55:17;12.60;30.50
1011;DHT22;494;48.744;10.106;2022-12-29T11:57:50;12.60;30.10
1011;DHT22;494;48.744;10.106;2022-12-29T12:00:23;12.70;30.40
1011;DHT22;494;48.744;10.106;2022-12-29T12:02:57;12.70;30.30
1011;DHT22;494;48.744;10.106;2022-12-29T12:05:35;12.70;30.60
1011;DHT22;494;48.744;10.106;2022-12-29T12:08:11;12.80;32.00
1011;DHT22;494;48.744;10.106;2022-12-29T12:10:50;12.70;32.60
1011;DHT22;494;48.744;10.106;2022-12-29T12:13:28;12.60;33.10
1011;DHT22;494;48.744;10.106;2022-12-29T12:16:05;12.60;33.80
1011;DHT22;494;48.744;10.106;2022-12-29T12:18:41;12.60;34.30
1011;DHT22;494;48.744;10.106;2022-12-29T12:21:23;12.50;35.00
1011;DHT22;494;48.744;10.106;2022-12-29T12:24:03;12.50;35.60
1011;DHT22;494;48.744;10.106;2022-12-29T12:26:57;12.40;36.40
1011;DHT22;494;48.744;10.106;2022-12-29T12:29:36;12.40;36.70
1011;DHT22;494;48.744;10.106;2022-12-29T12:32:15;12.40;37.80
1011;DHT22;494;48.744;10.106;2022-12-29T12:34:48;12.40;38.40
1011;DHT22;494;48.744;10.106;2022-12-29T12:37:38;12.40;39.60
1011;DHT22;494;48.744;10.106;2022-12-29T12:40:35;12.30;40.70
1011;DHT22;494;48.744;10.106;2022-12-29T12:43:39;12.30;41.50
1011;DHT22;494;48.744;10.106;2022-12-29T12:46:43;12.30;42.30
1011;DHT22;494;48.744;10.106;2022-12-29T12:52:48;12.20;44.20
1011;DHT22;494;48.744;10.106;2022-12-29T12:55:54;12.10;44.50
1011;DHT22;494;48.744;10.106;2022-12-29T12:58:48;12.10;45.00
1011;DHT22;494;48.744;10.106;2022-12-29T13:01:34;12.10;45.50
1011;DHT22;494;48.744;10.106;2022-12-29T13:04:28;12.10;45.70
1011;DHT22;494;48.744;10.106;2022-12-29T13:07:28;12.20;46.00
1011;DHT22;494;48.744;10.106;2022-12-29T13:10:30;12.20;45.70
1011;DHT22;494;48.744;10.106;2022-12-29T13:13:36;12.10;46.10
1011;DHT22;494;48.744;10.106;2022-12-29T13:16:29;12.20;46.20
1011;DHT22;494;48.744;10.106;2022-12-29T13:19:08;12.20;46.30
1011;DHT22;494;48.744;10.106;2022-12-29T13:22:01;12.10;47.40
1011;DHT22;494;48.744;10.106;2022-12-29T13:24:45;11.90;48.50
1011;DHT22;494;48.744;10.106;2022-12-29T13:27:28;11.80;48.40
1011;DHT22;494;48.744;10.106;2022-12-29T13:30:08;11.80;48.60
1011;DHT22;494;48.744;10.106;2022-12-29T13:32:49;11.90;48.90
1011;DHT22;494;48.744;10.106;2022-12-29T13:35:41;11.90;49.00
1011;DHT22;494;48.744;10.106;2022-12-29T13:38:23;11.90;48.80
1011;DHT22;494;48.744;10.106;2022-12-29T13:41:01;11.90;48.50
1011;DHT22;494;48.744;10.106;2022-12-29T13:43:35;11.90;48.30
1011;DHT22;494;48.744;10.106;2022-12-29T13:46:11;11.90;48.60
1011;DHT22;494;48.744;10.106;2022-12-29T13:48:48;11.90;48.70
1011;DHT22;494;48.744;10.106;2022-12-29T13:51:20;11.90;48.70
1011;DHT22;494;48.744;10.106;2022-12-29T13:54:12;11.90;48.80
1011;DHT22;494;48.744;10.106;2022-12-29T13:56:50;11.90;48.90
1011;DHT22;494;48.744;10.106;2022-12-29T13:59:30;11.90;49.20
1011;DHT22;494;48.744;10.106;2022-12-29T14:02:17;11.90;49.40
1011;DHT22;494;48.744;10.106;2022-12-29T14:05:01;11.90;49.40
1011;DHT22;494;48.744;10.106;2022-12-29T14:07:37;12.00;49.40
1011;DHT22;494;48.744;10.106;2022-12-29T14:10:18;12.00;49.30
1011;DHT22;494;48.744;10.106;2022-12-29T14:13:02;11.90;48.80
1011;DHT22;494;48.744;10.106;2022-12-29T14:15:33;11.90;48.80
1011;DHT22;494;48.744;10.106;2022-12-29T14:18:14;11.90;48.50
1011;DHT22;494;48.744;10.106;2022-12-29T14:20:53;11.90;48.40
1011;DHT22;494;48.744;10.106;2022-12-29T14:23:35;12.00;48.10
1011;DHT22;494;48.744;10.106;2022-12-29T14:26:17;12.10;48.20
1011;DHT22;494;48.744;10.106;2022-12-29T14:29:22;12.10;47.90
1011;DHT22;494;48.744;10.106;2022-12-29T14:32:36;12.10;47.90
1011;DHT22;494;48.744;10.106;2022-12-29T14:38:27;12.20;47.50
1011;DHT22;494;48.744;10.106;2022-12-29T14:41:29;12.20;46.90
1011;DHT22;494;48.744;10.106;2022-12-29T14:44:04;12.20;46.90
1011;DHT22;494;48.744;10.106;2022-12-29T14:46:54;12.20;46.70
1011;DHT22;494;48.744;10.106;2022-12-29T14:49:27;12.20;46.30
1011;DHT22;494;48.744;10.106;2022-12-29T14:52:18;12.30;46.10
1011;DHT22;494;48.744;10.106;2022-12-29T14:54:54;12.20;46.00
1011;DHT22;494;48.744;10.106;2022-12-29T14:57:38;12.20;46.00
1011;DHT22;494;48.744;10.106;2022-12-29T15:00:16;12.30;45.80
1011;DHT22;494;48.744;10.106;2022-12-29T15:02:51;12.10;45.90
1011;DHT22;494;48.744;10.106;2022-12-29T15:05:33;12.10;46.10
1011;DHT22;494;48.744;10.106;2022-12-29T15:08:07;12.00;45.90
1011;DHT22;494;48.744;10.106;2022-12-29T15:10:41;12.10;45.80
1011;DHT22;494;48.744;10.106;2022-12-29T15:13:21;12.00;45.70
1011;DHT22;494;48.744;10.106;2022-12-29T15:15:53;11.90;45.60
1011;DHT22;494;48.744;10.106;2022-12-29T15:18:24;11.60;45.50
1011;DHT22;494;48.744;10.106;2022-12-29T15:20:57;11.80;45.70
1011;DHT22;494;48.744;10.106;2022-12-29T15:23:31;11.70;45.70
1011;DHT22;494;48.744;10.106;2022-12-29T15:26:04;11.60;45.80
1011;DHT22;494;48.744;10.106;2022-12-29T15:28:38;11.60;45.80
1011;DHT22;494;48.744;10.106;2022-12-29T15:31:12;11.60;45.80
1011;DHT22;494;48.744;10.106;2022-12-29T15:33:44;11.50;45.80
1011;DHT22;494;48.744;10.106;2022-12-29T15:36:20;11.50;45.70
1011;DHT22;494;48.744;10.106;2022-12-29T15:38:52;11.40;45.90
1011;DHT22;494;48.744;10.106;2022-12-29T15:41:26;11.50;46.40
1011;DHT22;494;48.744;10.106;2022-12-29T15:44:28;11.40;46.70
1011;DHT22;494;48.744;10.106;2022-12-29T15:47:02;11.50;46.80
1011;DHT22;494;48.744;10.106;2022-12-29T15:49:32;11.50;47.40
1011;DHT22;494;48.744;10.106;2022-12-29T15:52:06;11.40;46.40
1011;DHT22;494;48.744;10.106;2022-12-29T15:54:37;11.30;46.40
1011;DHT22;494;48.744;10.106;2022-12-29T15:57:20;11.10;46.40
1011;DHT22;494;48.744;10.106;2022-12-29T15:59:51;11.10;47.00
1011;DHT22;494;48.744;10.106;2022-12-29T16:02:21;11.00;46.80
1011;DHT22;494;48.744;10.106;2022-12-29T16:04:51;11.00;46.70
1011;DHT22;494;48.744;10.106;2022-12-29T16:07:52;10.80;46.30
1011;DHT22;494;48.744;10.106;2022-12-29T16:10:27;10.80;46.40
1011;DHT22;494;48.744;10.106;2022-12-29T16:13:05;10.70;46.40
1011;DHT22;494;48.744;10.106;2022-12-29T16:15:46;10.60;46.40
1011;DHT22;494;48.744;10.106;2022-12-29T16:18:24;10.60;46.40
1011;DHT22;494;48.744;10.106;2022-12-29T16:20:55;10.50;46.50
1011;DHT22;494;48.744;10.106;2022-12-29T16:23:26;10.50;46.60
1011;DHT22;494;48.744;10.106;2022-12-29T16:25:58;10.40;46.50
1011;DHT22;494;48.744;10.106;2022-12-29T16:28:36;10.30;46.40
1011;DHT22;494;48.744;10.106;2022-12-29T16:31:18;10.20;46.40
1011;DHT22;494;48.744;10.106;2022-12-29T16:33:51;10.20;46.50
1011;DHT22;494;48.744;10.106;2022-12-29T16:36:27;10.10;46.60
1011;DHT22;494;48.744;10.106;2022-12-29T16:39:20;10.00;46.80
1011;DHT22;494;48.744;10.106;2022-12-29T16:41:55;9.90;46.90
1011;DHT22;494;48.744;10.106;2022-12-29T16:44:25;9.90;47.00
1011;DHT22;494;48.744;10.106;2022-12-29T16:47:19;9.90;46.90
1011;DHT22;494;48.744;10.106;2022-12-29T16:49:51;9.80;46.90
1011;DHT22;494;48.744;10.106;2022-12-29T16:52:23;9.80;46.90
1011;DHT22;494;48.744;10.106;2022-12-29T16:54:59;9.80;46.90
1011;DHT22;494;48.744;10.106;2022-12-29T16:57:32;9.70;46.90
1011;DHT22;494;48.744;10.106;2022-12-29T17:00:06;9.70;47.10
1011;DHT22;494;48.744;10.106;2022-12-29T17:02:46;9.70;47.20
1011;DHT22;494;48.744;10.106;2022-12-29T17:05:17;9.70;47.30
1011;DHT22;494;48.744;10.106;2022-12-29T17:07:47;9.70;47.20
1011;DHT22;494;48.744;10.106;2022-12-29T17:10:15;9.70;47.40
1011;DHT22;494;48.744;10.106;2022-12-29T17:12:47;9.70;47.50
1011;DHT22;494;48.744;10.106;2022-12-29T17:15:23;9.70;47.40